createdAt,value
2018-02-24T00:00:11.635Z,0
2018-02-24T00:01:11.354Z,0
2018-02-24T00:02:11.315Z,0
2018-02-24T00:03:11.536Z,0
2018-02-24T00:04:11.250Z,0
2018-02-24T00:05:11.220Z,0
2018-02-24T00:06:11.423Z,0
2018-02-24T00:07:11.389Z,0
2018-02-24T00:08:11.354Z,0
2018-02-24T00:09:11.319Z,0
2018-02-24T00:10:11.285Z,0
2018-02-24T00:11:11.244Z,0
2018-02-24T00:12:11.042Z,0
2018-02-24T00:13:11.179Z,0
2018-02-24T00:14:10.890Z,0
2018-02-24T00:15:10.857Z,0
2018-02-24T00:16:10.616Z,0
2018-02-24T00:17:11.040Z,0
2018-02-24T00:18:11.007Z,0
2018-02-24T00:19:10.709Z,0
2018-02-24T00:20:10.931Z,0
2018-02-24T00:21:10.889Z,0
2018-02-24T00:22:10.847Z,0
2018-02-24T00:23:10.826Z,0
2018-02-24T00:24:10.780Z,0
2018-02-24T00:25:10.250Z,0
2018-02-24T00:26:10.712Z,0
2018-02-24T00:27:10.677Z,0
2018-02-24T00:28:10.653Z,0
2018-02-24T00:29:10.602Z,0
2018-02-24T00:30:10.363Z,0
2018-02-24T00:31:10.283Z,0
2018-02-24T00:32:10.255Z,0
2018-02-24T00:33:10.216Z,0
2018-02-24T00:34:10.184Z,0
2018-02-24T00:35:10.290Z,0
2018-02-24T00:36:10.362Z,0
2018-02-24T00:37:10.076Z,0
2018-02-24T00:38:10.334Z,0
2018-02-24T00:39:10.001Z,0
2018-02-24T00:40:09.478Z,0
2018-02-24T00:41:09.687Z,0
2018-02-24T00:42:09.641Z,0
2018-02-24T00:43:10.107Z,0
2018-02-24T00:44:10.072Z,0
2018-02-24T00:45:09.788Z,0
2018-02-24T00:46:09.745Z,0
2018-02-24T00:47:09.465Z,0
2018-02-24T00:48:09.679Z,0
2018-02-24T00:49:09.893Z,0
2018-02-24T00:50:09.616Z,0
2018-02-24T00:51:09.572Z,0
2018-02-24T00:52:09.791Z,0
2018-02-24T00:53:09.888Z,0
2018-02-24T00:54:09.217Z,0
2018-02-24T00:55:09.729Z,0
2018-02-24T00:56:09.637Z,0
2018-02-24T00:57:09.108Z,0
2018-02-24T00:58:09.568Z,0
2018-02-24T00:59:09.528Z,0
2018-02-24T01:00:09.500Z,0
2018-02-24T01:01:09.256Z,0
2018-02-24T01:02:09.443Z,0
2018-02-24T01:03:09.385Z,0
2018-02-24T01:04:09.355Z,0
2018-02-24T01:05:09.326Z,0
2018-02-24T01:06:09.033Z,0
2018-02-24T01:07:09.247Z,0
2018-02-24T01:08:09.205Z,0
2018-02-24T01:09:09.177Z,0
2018-02-24T01:10:09.135Z,0
2018-02-24T01:11:08.856Z,0
2018-02-24T01:12:09.071Z,0
2018-02-24T01:13:09.028Z,0
2018-02-24T01:14:08.741Z,0
2018-02-24T01:15:08.962Z,0
2018-02-24T01:16:08.675Z,0
2018-02-24T01:17:08.886Z,0
2018-02-24T01:18:08.853Z,0
2018-02-24T01:19:08.815Z,0
2018-02-24T01:20:08.780Z,0
2018-02-24T01:21:08.352Z,0
2018-02-24T01:22:08.709Z,0
2018-02-24T01:23:08.681Z,0
2018-02-24T01:24:08.644Z,0
2018-02-24T01:25:08.596Z,0
2018-02-24T01:26:08.560Z,0
2018-02-24T01:27:08.525Z,0
2018-02-24T01:28:08.488Z,0
2018-02-24T01:29:08.461Z,0
2018-02-24T01:30:08.419Z,0
2018-02-24T01:31:08.388Z,0
2018-02-24T01:32:08.364Z,0
2018-02-24T01:33:08.313Z,0
2018-02-24T01:34:08.273Z,0
2018-02-24T01:35:07.992Z,0
2018-02-24T01:36:08.216Z,0
2018-02-24T01:37:08.174Z,0
2018-02-24T01:38:07.886Z,0
2018-02-24T01:39:07.601Z,0
2018-02-24T01:40:07.565Z,0
2018-02-24T01:41:07.782Z,0
2018-02-24T01:42:08.096Z,0
2018-02-24T01:43:07.953Z,0
2018-02-24T01:44:07.669Z,0
2018-02-24T01:45:07.138Z,0
2018-02-24T01:46:07.847Z,0
2018-02-24T01:47:07.568Z,0
2018-02-24T01:48:07.281Z,0
2018-02-24T01:49:07.495Z,0
2018-02-24T01:50:07.451Z,0
2018-02-24T01:51:07.419Z,0
2018-02-24T01:52:07.634Z,0
2018-02-24T01:53:08.492Z,0
2018-02-24T01:54:08.744Z,0
2018-02-24T01:55:07.731Z,0
2018-02-24T01:56:07.494Z,0
2018-02-24T01:57:07.207Z,0
2018-02-24T01:58:07.168Z,0
2018-02-24T01:59:07.130Z,0
2018-02-24T02:00:07.340Z,0
2018-02-24T02:01:07.313Z,0
2018-02-24T02:02:07.266Z,0
2018-02-24T02:03:07.237Z,0
2018-02-24T02:04:07.199Z,0
2018-02-24T02:05:07.164Z,0
2018-02-24T02:06:06.381Z,0
2018-02-24T02:07:06.843Z,0
2018-02-24T02:08:07.051Z,0
2018-02-24T02:09:07.022Z,0
2018-02-24T02:10:06.979Z,0
2018-02-24T02:11:07.194Z,0
2018-02-24T02:12:06.908Z,0
2018-02-24T02:13:06.629Z,0
2018-02-24T02:14:06.835Z,0
2018-02-24T02:15:06.579Z,0
2018-02-24T02:16:06.517Z,0
2018-02-24T02:17:06.733Z,0
2018-02-24T02:18:06.444Z,0
2018-02-24T02:19:06.656Z,0
2018-02-24T02:20:06.630Z,0
2018-02-24T02:21:06.658Z,0
2018-02-24T02:22:06.544Z,0
2018-02-24T02:23:06.511Z,0
2018-02-24T02:24:06.480Z,0
2018-02-24T02:25:06.437Z,0
2018-02-24T02:26:05.911Z,0
2018-02-24T02:27:06.368Z,0
2018-02-24T02:28:06.089Z,0
2018-02-24T02:29:06.051Z,0
2018-02-24T02:30:05.767Z,0
2018-02-24T02:31:05.984Z,0
2018-02-24T02:32:06.206Z,0
2018-02-24T02:33:06.163Z,0
2018-02-24T02:34:06.261Z,0
2018-02-24T02:35:06.102Z,0
2018-02-24T02:36:06.054Z,0
2018-02-24T02:37:05.516Z,0
2018-02-24T02:38:05.980Z,0
2018-02-24T02:39:05.949Z,0
2018-02-24T02:40:05.655Z,0
2018-02-24T02:41:05.385Z,0
2018-02-24T02:42:05.593Z,0
2018-02-24T02:43:05.796Z,0
2018-02-24T02:44:05.771Z,0
2018-02-24T02:45:05.229Z,0
2018-02-24T02:46:05.692Z,0
2018-02-24T02:47:05.660Z,0
2018-02-24T02:48:05.369Z,0
2018-02-24T02:49:05.353Z,0
2018-02-24T02:50:05.299Z,0
2018-02-24T02:51:05.011Z,0
2018-02-24T02:52:05.477Z,0
2018-02-24T02:53:05.492Z,0
2018-02-24T02:54:04.901Z,0
2018-02-24T02:55:05.123Z,0
2018-02-24T02:56:04.832Z,0
2018-02-24T02:57:05.293Z,0
2018-02-24T02:58:05.261Z,0
2018-02-24T02:59:05.009Z,0
2018-02-24T03:00:04.700Z,0
2018-02-24T03:01:05.146Z,0
2018-02-24T03:02:05.135Z,0
2018-02-24T03:03:04.593Z,0
2018-02-24T03:04:05.036Z,0
2018-02-24T03:05:05.006Z,0
2018-02-24T03:06:04.728Z,0
2018-02-24T03:07:04.932Z,0
2018-02-24T03:08:04.422Z,0
2018-02-24T03:09:04.634Z,0
2018-02-24T03:10:04.824Z,0
2018-02-24T03:11:04.536Z,0
2018-02-24T03:12:04.769Z,0
2018-02-24T03:13:04.465Z,0
2018-02-24T03:14:04.670Z,0
2018-02-24T03:15:04.640Z,0
2018-02-24T03:16:04.600Z,0
2018-02-24T03:17:04.631Z,0
2018-02-24T03:18:04.284Z,0
2018-02-24T03:19:04.240Z,0
2018-02-24T03:20:04.463Z,0
2018-02-24T03:21:04.174Z,0
2018-02-24T03:22:04.385Z,0
2018-02-24T03:23:04.347Z,0
2018-02-24T03:24:04.066Z,0
2018-02-24T03:25:04.034Z,0
2018-02-24T03:26:04.242Z,0
2018-02-24T03:27:03.955Z,0
2018-02-24T03:28:03.924Z,0
2018-02-24T03:29:04.137Z,0
2018-02-24T03:30:04.109Z,0
2018-02-24T03:31:03.819Z,0
2018-02-24T03:32:04.019Z,0
2018-02-24T03:33:03.988Z,0
2018-02-24T03:34:03.704Z,0
2018-02-24T03:35:03.424Z,0
2018-02-24T03:36:03.889Z,0
2018-02-24T03:37:03.844Z,0
2018-02-24T03:38:03.807Z,0
2018-02-24T03:39:03.776Z,0
2018-02-24T03:40:03.737Z,0
2018-02-24T03:41:03.699Z,0
2018-02-24T03:42:03.418Z,0
2018-02-24T03:43:03.622Z,0
2018-02-24T03:44:03.346Z,0
2018-02-24T03:45:03.302Z,0
2018-02-24T03:46:03.021Z,0
2018-02-24T03:47:03.478Z,0
2018-02-24T03:48:03.444Z,0
2018-02-24T03:49:03.410Z,0
2018-02-24T03:50:03.124Z,0
2018-02-24T03:51:03.427Z,0
2018-02-24T03:52:03.297Z,0
2018-02-24T03:53:03.268Z,0
2018-02-24T03:54:03.234Z,0
2018-02-24T03:55:03.197Z,0
2018-02-24T03:56:03.151Z,0
2018-02-24T03:57:03.120Z,0
2018-02-24T03:58:03.085Z,0
2018-02-24T03:59:03.050Z,0
2018-02-24T04:00:02.517Z,0
2018-02-24T04:01:02.970Z,0
2018-02-24T04:02:02.946Z,0
2018-02-24T04:03:02.647Z,0
2018-02-24T04:04:02.623Z,0
2018-02-24T04:05:02.821Z,0
2018-02-24T04:06:02.289Z,0
2018-02-24T04:07:02.508Z,0
2018-02-24T04:08:02.717Z,0
2018-02-24T04:09:02.698Z,0
2018-02-24T04:10:02.408Z,0
2018-02-24T04:11:02.616Z,0
2018-02-24T04:12:02.569Z,0
2018-02-24T04:13:02.537Z,0
2018-02-24T04:14:02.688Z,0
2018-02-24T04:15:02.469Z,0
2018-02-24T04:16:02.183Z,0
2018-02-24T04:17:02.393Z,0
2018-02-24T04:18:02.368Z,0
2018-02-24T04:19:02.321Z,0
2018-02-24T04:20:02.286Z,0
2018-02-24T04:21:01.998Z,0
2018-02-24T04:22:02.220Z,0
2018-02-24T04:23:01.930Z,0
2018-02-24T04:24:01.892Z,0
2018-02-24T04:25:02.098Z,0
2018-02-24T04:26:01.814Z,0
2018-02-24T04:27:02.036Z,0
2018-02-24T04:28:01.988Z,0
2018-02-24T04:29:01.959Z,0
2018-02-24T04:30:01.974Z,0
2018-02-24T04:31:01.882Z,0
2018-02-24T04:32:01.845Z,0
2018-02-24T04:33:01.830Z,0
2018-02-24T04:34:01.540Z,0
2018-02-24T04:35:01.486Z,0
2018-02-24T04:36:01.710Z,0
2018-02-24T04:37:01.417Z,0
2018-02-24T04:38:01.376Z,0
2018-02-24T04:39:01.590Z,0
2018-02-24T04:40:01.554Z,0
2018-02-24T04:41:01.524Z,0
2018-02-24T04:42:01.490Z,0
2018-02-24T04:43:01.192Z,0
2018-02-24T04:44:01.163Z,0
2018-02-24T04:45:01.372Z,0
2018-02-24T04:46:01.345Z,0
2018-02-24T04:47:01.302Z,0
2018-02-24T04:48:01.268Z,0
2018-02-24T04:49:01.233Z,0
2018-02-24T04:50:01.202Z,0
2018-02-24T04:51:01.153Z,0
2018-02-24T04:52:01.124Z,0
2018-02-24T04:53:01.083Z,0
2018-02-24T04:54:01.056Z,0
2018-02-24T04:55:01.014Z,0
2018-02-24T04:56:00.733Z,0
2018-02-24T04:57:00.951Z,0
2018-02-24T04:58:00.653Z,0
2018-02-24T04:59:00.874Z,0
2018-02-24T05:00:00.579Z,0
2018-02-24T05:01:00.544Z,0
2018-02-24T05:02:00.262Z,0
2018-02-24T05:03:00.719Z,0
2018-02-24T05:04:00.686Z,0
2018-02-24T05:05:00.645Z,0
2018-02-24T05:06:00.366Z,0
2018-02-24T05:07:00.333Z,0
2018-02-24T05:08:00.042Z,0
2018-02-24T05:09:00.498Z,0
2018-02-24T05:10:00.514Z,0
2018-02-24T05:11:00.426Z,0
2018-02-24T05:12:00.394Z,0
2018-02-24T05:13:00.367Z,0
2018-02-24T05:14:00.320Z,0
2018-02-24T05:15:00.293Z,0
2018-02-24T05:16:00.246Z,0
2018-02-24T05:17:00.212Z,0
2018-02-24T05:18:00.180Z,0
2018-02-24T05:19:00.133Z,0
2018-02-24T05:20:00.158Z,0
2018-02-24T05:21:00.061Z,0
2018-02-24T05:22:00.083Z,0
2018-02-24T05:22:59.744Z,0
2018-02-24T05:23:59.713Z,0
2018-02-24T05:25:00.062Z,0
2018-02-24T05:25:59.878Z,0
2018-02-24T05:26:59.853Z,0
2018-02-24T05:27:59.809Z,0
2018-02-24T05:28:59.825Z,0
2018-02-24T05:29:59.485Z,0
2018-02-24T05:30:59.704Z,0
2018-02-24T05:31:59.665Z,0
2018-02-24T05:32:59.631Z,0
2018-02-24T05:33:59.600Z,0
2018-02-24T05:34:59.563Z,0
2018-02-24T05:35:59.518Z,0
2018-02-24T05:36:59.483Z,0
2018-02-24T05:37:59.449Z,0
2018-02-24T05:38:59.454Z,0
2018-02-24T05:39:59.219Z,0
2018-02-24T05:40:59.338Z,0
2018-02-24T05:41:59.051Z,0
2018-02-24T05:42:59.262Z,0
2018-02-24T05:43:58.976Z,0
2018-02-24T05:44:59.186Z,0
2018-02-24T05:45:58.909Z,0
2018-02-24T05:46:59.120Z,0
2018-02-24T05:47:59.079Z,0
2018-02-24T05:48:59.058Z,0
2018-02-24T05:49:59.004Z,0
2018-02-24T05:50:58.971Z,0
2018-02-24T05:51:58.683Z,0
2018-02-24T05:52:58.907Z,0
2018-02-24T05:53:58.861Z,0
2018-02-24T05:54:58.827Z,0
2018-02-24T05:55:58.541Z,0
2018-02-24T05:56:58.873Z,0
2018-02-24T05:57:58.472Z,0
2018-02-24T05:58:58.681Z,0
2018-02-24T05:59:58.650Z,0
2018-02-24T06:00:58.605Z,0
2018-02-24T06:01:58.575Z,0
2018-02-24T06:02:58.296Z,0
2018-02-24T06:03:58.494Z,0
2018-02-24T06:04:58.457Z,0
2018-02-24T06:05:58.526Z,0
2018-02-24T06:06:58.393Z,0
2018-02-24T06:07:58.354Z,0
2018-02-24T06:08:58.062Z,0
2018-02-24T06:09:58.280Z,0
2018-02-24T06:10:57.999Z,0
2018-02-24T06:11:58.210Z,0
2018-02-24T06:12:58.175Z,0
2018-02-24T06:13:57.890Z,5
2018-02-24T06:14:58.100Z,5
2018-02-24T06:15:58.185Z,5
2018-02-24T06:16:57.531Z,5
2018-02-24T06:17:57.991Z,5
2018-02-24T06:18:57.952Z,10
2018-02-24T06:19:57.915Z,10
2018-02-24T06:20:57.885Z,10
2018-02-24T06:21:57.596Z,10
2018-02-24T06:22:57.817Z,15
2018-02-24T06:23:57.767Z,15
2018-02-24T06:24:57.485Z,15
2018-02-24T06:25:57.695Z,20
2018-02-24T06:26:57.662Z,20
2018-02-24T06:27:57.626Z,20
2018-02-24T06:28:57.341Z,25
2018-02-24T06:29:57.548Z,25
2018-02-24T06:30:57.513Z,25
2018-02-24T06:31:57.481Z,30
2018-02-24T06:32:57.444Z,30
2018-02-24T06:33:57.158Z,35
2018-02-24T06:34:57.371Z,35
2018-02-24T06:35:57.346Z,40
2018-02-24T06:36:57.296Z,40
2018-02-24T06:37:57.026Z,45
2018-02-24T06:38:57.222Z,45
2018-02-24T06:39:57.188Z,50
2018-02-24T06:40:57.154Z,55
2018-02-24T06:41:57.117Z,55
2018-02-24T06:42:57.078Z,60
2018-02-24T06:43:57.051Z,60
2018-02-24T06:44:56.768Z,65
2018-02-24T06:45:56.723Z,65
2018-02-24T06:46:56.682Z,70
2018-02-24T06:47:56.898Z,70
2018-02-24T06:48:56.934Z,75
2018-02-24T06:49:56.815Z,80
2018-02-24T06:50:56.537Z,80
2018-02-24T06:51:56.252Z,85
2018-02-24T06:52:56.232Z,85
2018-02-24T06:53:56.685Z,90
2018-02-24T06:54:56.641Z,95
2018-02-24T06:55:56.606Z,95
2018-02-24T06:56:56.326Z,100
2018-02-24T06:57:56.284Z,100
2018-02-24T06:58:56.496Z,105
2018-02-24T06:59:56.457Z,110
2018-02-24T07:00:56.531Z,110
2018-02-24T07:01:56.145Z,115
2018-02-24T07:02:56.345Z,115
2018-02-24T07:03:56.067Z,120
2018-02-24T07:04:56.030Z,125
2018-02-24T07:05:56.242Z,125
2018-02-24T07:06:55.955Z,130
2018-02-24T07:07:56.167Z,130
2018-02-24T07:08:56.137Z,135
2018-02-24T07:09:55.846Z,135
2018-02-24T07:10:56.063Z,140
2018-02-24T07:11:55.780Z,140
2018-02-24T07:12:56.062Z,145
2018-02-24T07:13:55.951Z,145
2018-02-24T07:14:55.923Z,145
2018-02-24T07:15:55.884Z,150
2018-02-24T07:16:55.348Z,150
2018-02-24T07:17:55.813Z,155
2018-02-24T07:18:55.774Z,155
2018-02-24T07:19:55.734Z,160
2018-02-24T07:20:55.745Z,160
2018-02-24T07:21:55.665Z,160
2018-02-24T07:22:55.384Z,165
2018-02-24T07:23:55.595Z,165
2018-02-24T07:24:55.553Z,165
2018-02-24T07:25:55.522Z,170
2018-02-24T07:26:55.482Z,175
2018-02-24T07:27:55.206Z,175
2018-02-24T07:28:55.411Z,175
2018-02-24T07:29:55.378Z,180
2018-02-24T07:30:55.343Z,180
2018-02-24T07:31:55.053Z,185
2018-02-24T07:32:55.276Z,185
2018-02-24T07:33:55.234Z,185
2018-02-24T07:34:54.949Z,190
2018-02-24T07:35:55.162Z,190
2018-02-24T07:36:54.874Z,190
2018-02-24T07:37:55.093Z,195
2018-02-24T07:38:55.109Z,195
2018-02-24T07:39:54.772Z,200
2018-02-24T07:40:54.983Z,200
2018-02-24T07:41:54.954Z,200
2018-02-24T07:42:54.660Z,200
2018-02-24T07:43:54.872Z,205
2018-02-24T07:44:54.590Z,205
2018-02-24T07:45:54.803Z,205
2018-02-24T07:46:54.612Z,210
2018-02-24T07:47:54.746Z,215
2018-02-24T07:48:54.706Z,215
2018-02-24T07:49:54.660Z,215
2018-02-24T07:50:54.626Z,215
2018-02-24T07:51:54.593Z,215
2018-02-24T07:52:54.378Z,220
2018-02-24T07:53:54.271Z,220
2018-02-24T07:54:54.490Z,220
2018-02-24T07:55:54.453Z,220
2018-02-24T07:56:54.414Z,220
2018-02-24T07:57:53.884Z,225
2018-02-24T07:58:54.342Z,235
2018-02-24T07:59:53.816Z,230
2018-02-24T08:00:54.025Z,230
2018-02-24T08:01:53.993Z,230
2018-02-24T08:02:54.207Z,235
2018-02-24T08:03:54.168Z,235
2018-02-24T08:04:54.204Z,240
2018-02-24T08:05:53.595Z,240
2018-02-24T08:06:54.058Z,245
2018-02-24T08:07:53.776Z,245
2018-02-24T08:08:53.739Z,250
2018-02-24T08:09:53.953Z,255
2018-02-24T08:10:53.926Z,255
2018-02-24T08:11:53.637Z,255
2018-02-24T08:12:53.601Z,255
2018-02-24T08:13:53.560Z,260
2018-02-24T08:14:53.781Z,265
2018-02-24T08:15:53.507Z,265
2018-02-24T08:16:53.455Z,260
2018-02-24T08:17:53.678Z,265
2018-02-24T08:18:53.643Z,270
2018-02-24T08:19:53.364Z,265
2018-02-24T08:20:53.324Z,270
2018-02-24T08:21:53.711Z,275
2018-02-24T08:22:53.500Z,270
2018-02-24T08:23:53.215Z,270
2018-02-24T08:24:53.179Z,270
2018-02-24T08:25:53.387Z,270
2018-02-24T08:26:53.240Z,265
2018-02-24T08:27:53.330Z,265
2018-02-24T08:28:53.292Z,260
2018-02-24T08:29:53.018Z,255
2018-02-24T08:30:53.242Z,260
2018-02-24T08:31:52.931Z,260
2018-02-24T08:32:53.309Z,260
2018-02-24T08:33:53.109Z,260
2018-02-24T08:34:53.082Z,265
2018-02-24T08:35:53.054Z,265
2018-02-24T08:36:53.019Z,260
2018-02-24T08:37:52.978Z,265
2018-02-24T08:38:52.956Z,265
2018-02-24T08:39:52.915Z,265
2018-02-24T08:40:52.626Z,260
2018-02-24T08:41:52.847Z,260
2018-02-24T08:42:52.563Z,265
2018-02-24T08:43:52.780Z,265
2018-02-24T08:44:52.488Z,270
2018-02-24T08:45:52.494Z,275
2018-02-24T08:46:52.662Z,275
2018-02-24T08:47:52.392Z,275
2018-02-24T08:48:52.103Z,280
2018-02-24T08:49:52.559Z,280
2018-02-24T08:50:52.283Z,285
2018-02-24T08:51:52.503Z,285
2018-02-24T08:52:52.633Z,290
2018-02-24T08:53:51.923Z,290
2018-02-24T08:54:52.390Z,290
2018-02-24T08:55:51.857Z,290
2018-02-24T08:56:52.087Z,290
2018-02-24T08:57:52.123Z,295
2018-02-24T08:58:52.988Z,295
2018-02-24T08:59:51.968Z,295
2018-02-24T09:00:52.201Z,295
2018-02-24T09:01:52.148Z,295
2018-02-24T09:02:52.120Z,295
2018-02-24T09:03:52.084Z,295
2018-02-24T09:04:51.798Z,295
2018-02-24T09:05:52.019Z,295
2018-02-24T09:06:51.905Z,290
2018-02-24T09:07:51.941Z,295
2018-02-24T09:08:51.663Z,295
2018-02-24T09:09:51.884Z,295
2018-02-24T09:10:51.877Z,295
2018-02-24T09:11:51.558Z,295
2018-02-24T09:12:51.779Z,295
2018-02-24T09:13:51.747Z,295
2018-02-24T09:14:51.471Z,295
2018-02-24T09:15:51.906Z,295
2018-02-24T09:16:51.642Z,295
2018-02-24T09:17:52.032Z,295
2018-02-24T09:18:51.332Z,290
2018-02-24T09:19:51.635Z,290
2018-02-24T09:20:51.501Z,295
2018-02-24T09:21:51.220Z,295
2018-02-24T09:22:51.186Z,295
2018-02-24T09:23:51.153Z,295
2018-02-24T09:24:51.364Z,295
2018-02-24T09:25:51.332Z,295
2018-02-24T09:26:51.305Z,305
2018-02-24T09:27:51.022Z,300
2018-02-24T09:28:51.230Z,305
2018-02-24T09:29:51.198Z,305
2018-02-24T09:30:50.511Z,305
2018-02-24T09:31:50.884Z,305
2018-02-24T09:32:50.848Z,305
2018-02-24T09:33:51.067Z,305
2018-02-24T09:34:51.036Z,305
2018-02-24T09:35:50.995Z,305
2018-02-24T09:36:50.957Z,305
2018-02-24T09:37:50.674Z,300
2018-02-24T09:38:50.762Z,305
2018-02-24T09:39:50.609Z,310
2018-02-24T09:40:50.825Z,315
2018-02-24T09:41:50.292Z,315
2018-02-24T09:42:50.512Z,315
2018-02-24T09:43:50.726Z,315
2018-02-24T09:44:50.697Z,315
2018-02-24T09:45:50.653Z,315
2018-02-24T09:46:50.127Z,315
2018-02-24T09:47:50.593Z,315
2018-02-24T09:48:50.303Z,315
2018-02-24T09:49:50.518Z,315
2018-02-24T09:50:50.492Z,315
2018-02-24T09:51:50.464Z,315
2018-02-24T09:52:49.930Z,315
2018-02-24T09:53:50.398Z,315
2018-02-24T09:54:50.103Z,315
2018-02-24T09:55:50.081Z,315
2018-02-24T09:56:50.046Z,315
2018-02-24T09:57:50.008Z,315
2018-02-24T09:58:50.070Z,315
2018-02-24T09:59:49.943Z,315
2018-02-24T10:00:49.917Z,315
2018-02-24T10:01:49.628Z,315
2018-02-24T10:02:49.597Z,315
2018-02-24T10:03:49.561Z,315
2018-02-24T10:04:50.022Z,315
2018-02-24T10:05:49.989Z,315
2018-02-24T10:06:49.712Z,315
2018-02-24T10:07:49.682Z,315
2018-02-24T10:08:49.770Z,315
2018-02-24T10:09:49.630Z,315
2018-02-24T10:10:49.679Z,315
2018-02-24T10:11:49.543Z,315
2018-02-24T10:12:49.522Z,315
2018-02-24T10:13:49.726Z,320
2018-02-24T10:14:49.444Z,320
2018-02-24T10:15:49.414Z,320
2018-02-24T10:16:49.631Z,320
2018-02-24T10:17:49.596Z,320
2018-02-24T10:18:49.347Z,320
2018-02-24T10:19:49.039Z,320
2018-02-24T10:20:49.602Z,320
2018-02-24T10:21:49.218Z,320
2018-02-24T10:22:49.435Z,320
2018-02-24T10:23:49.410Z,320
2018-02-24T10:24:49.381Z,320
2018-02-24T10:25:49.084Z,320
2018-02-24T10:26:49.299Z,320
2018-02-24T10:27:49.280Z,325
2018-02-24T10:28:49.232Z,325
2018-02-24T10:29:48.718Z,325
2018-02-24T10:30:49.171Z,325
2018-02-24T10:31:49.141Z,325
2018-02-24T10:32:49.110Z,325
2018-02-24T10:33:49.084Z,325
2018-02-24T10:34:49.053Z,325
2018-02-24T10:35:49.007Z,325
2018-02-24T10:36:48.977Z,325
2018-02-24T10:37:48.946Z,325
2018-02-24T10:38:48.670Z,330
2018-02-24T10:39:48.880Z,330
2018-02-24T10:40:48.852Z,330
2018-02-24T10:41:48.814Z,330
2018-02-24T10:42:48.534Z,330
2018-02-24T10:43:48.759Z,335
2018-02-24T10:44:48.724Z,330
2018-02-24T10:45:48.686Z,330
2018-02-24T10:46:48.420Z,330
2018-02-24T10:47:48.383Z,330
2018-02-24T10:48:48.589Z,330
2018-02-24T10:49:48.310Z,330
2018-02-24T10:50:48.281Z,330
2018-02-24T10:51:48.252Z,330
2018-02-24T10:52:48.457Z,335
2018-02-24T10:53:48.446Z,335
2018-02-24T10:54:48.403Z,330
2018-02-24T10:55:48.369Z,335
2018-02-24T10:56:48.341Z,335
2018-02-24T10:57:48.057Z,335
2018-02-24T10:58:48.027Z,330
2018-02-24T10:59:48.246Z,335
2018-02-24T11:00:48.480Z,335
2018-02-24T11:01:47.937Z,335
2018-02-24T11:02:47.648Z,335
2018-02-24T11:03:47.864Z,335
2018-02-24T11:04:48.084Z,335
2018-02-24T11:05:47.806Z,335
2018-02-24T11:06:47.528Z,335
2018-02-24T11:07:47.734Z,335
2018-02-24T11:08:47.951Z,335
2018-02-24T11:09:47.676Z,335
2018-02-24T11:10:47.887Z,335
2018-02-24T11:11:47.858Z,335
2018-02-24T11:12:47.583Z,335
2018-02-24T11:13:47.800Z,335
2018-02-24T11:14:47.514Z,335
2018-02-24T11:15:47.729Z,335
2018-02-24T11:16:47.698Z,335
2018-02-24T11:17:47.760Z,335
2018-02-24T11:18:47.642Z,335
2018-02-24T11:19:47.406Z,335
2018-02-24T11:20:47.351Z,335
2018-02-24T11:21:47.470Z,335
2018-02-24T11:22:46.779Z,335
2018-02-24T11:23:47.495Z,335
2018-02-24T11:24:47.210Z,335
2018-02-24T11:25:47.202Z,335
2018-02-24T11:26:46.684Z,335
2018-02-24T11:27:47.430Z,335
2018-02-24T11:28:46.848Z,340
2018-02-24T11:29:47.367Z,340
2018-02-24T11:30:47.087Z,340
2018-02-24T11:31:47.242Z,340
2018-02-24T11:32:46.972Z,340
2018-02-24T11:33:47.159Z,340
2018-02-24T11:34:47.134Z,340
2018-02-24T11:35:46.864Z,340
2018-02-24T11:36:46.829Z,340
2018-02-24T11:37:46.790Z,340
2018-02-24T11:38:47.015Z,340
2018-02-24T11:39:46.738Z,340
2018-02-24T11:40:46.950Z,340
2018-02-24T11:41:46.446Z,340
2018-02-24T11:42:46.691Z,340
2018-02-24T11:43:46.151Z,340
2018-02-24T11:44:46.851Z,340
2018-02-24T11:45:46.758Z,340
2018-02-24T11:46:46.318Z,340
2018-02-24T11:47:46.492Z,335
2018-02-24T11:48:46.438Z,335
2018-02-24T11:49:46.410Z,335
2018-02-24T11:50:46.384Z,335
2018-02-24T11:51:46.598Z,340
2018-02-24T11:52:46.562Z,340
2018-02-24T11:53:46.535Z,340
2018-02-24T11:54:46.516Z,335
2018-02-24T11:55:46.241Z,340
2018-02-24T11:56:46.445Z,345
2018-02-24T11:57:46.156Z,340
2018-02-24T11:58:46.378Z,340
2018-02-24T11:59:46.350Z,340
2018-02-24T12:00:46.063Z,340
2018-02-24T12:01:46.288Z,340
2018-02-24T12:02:45.758Z,340
2018-02-24T12:03:46.226Z,340
2018-02-24T12:04:45.688Z,340
2018-02-24T12:05:46.161Z,345
2018-02-24T12:06:45.926Z,345
2018-02-24T12:07:45.889Z,345
2018-02-24T12:08:46.067Z,350
2018-02-24T12:09:45.789Z,345
2018-02-24T12:10:46.006Z,345
2018-02-24T12:11:45.729Z,345
2018-02-24T12:12:45.697Z,345
2018-02-24T12:13:45.983Z,345
2018-02-24T12:14:45.881Z,345
2018-02-24T12:15:45.968Z,345
2018-02-24T12:16:45.563Z,345
2018-02-24T12:17:45.782Z,345
2018-02-24T12:18:45.509Z,345
2018-02-24T12:19:45.725Z,345
2018-02-24T12:20:45.696Z,345
2018-02-24T12:21:45.660Z,345
2018-02-24T12:22:45.645Z,345
2018-02-24T12:23:45.975Z,350
2018-02-24T12:24:45.316Z,350
2018-02-24T12:25:45.537Z,350
2018-02-24T12:26:45.516Z,350
2018-02-24T12:27:45.470Z,350
2018-02-24T12:28:45.441Z,350
2018-02-24T12:29:45.410Z,350
2018-02-24T12:30:47.927Z,350
2018-02-24T12:31:45.634Z,345
2018-02-24T12:32:48.541Z,350
2018-02-24T12:33:45.304Z,355
2018-02-24T12:34:46.849Z,355
2018-02-24T12:35:47.910Z,355
2018-02-24T12:36:47.086Z,360
2018-02-24T12:37:46.117Z,365
2018-02-24T12:38:46.777Z,365
2018-02-24T12:39:45.201Z,360
2018-02-24T12:40:45.481Z,360
2018-02-24T12:41:45.040Z,360
2018-02-24T12:42:45.008Z,365
2018-02-24T12:43:45.099Z,365
2018-02-24T12:44:44.961Z,365
2018-02-24T12:45:44.917Z,365
2018-02-24T12:46:45.365Z,370
2018-02-24T12:47:44.608Z,370
2018-02-24T12:48:44.829Z,370
2018-02-24T12:49:44.286Z,375
2018-02-24T12:50:44.512Z,380
2018-02-24T12:51:44.230Z,380
2018-02-24T12:52:44.709Z,385
2018-02-24T12:53:44.674Z,385
2018-02-24T12:54:44.394Z,380
2018-02-24T12:55:44.609Z,385
2018-02-24T12:56:44.344Z,385
2018-02-24T12:57:44.546Z,390
2018-02-24T12:58:44.266Z,390
2018-02-24T12:59:44.240Z,395
2018-02-24T13:00:44.455Z,400
2018-02-24T13:01:44.438Z,410
2018-02-24T13:02:44.152Z,415
2018-02-24T13:03:44.117Z,420
2018-02-24T13:04:44.331Z,425
2018-02-24T13:05:44.299Z,455
2018-02-24T13:06:44.268Z,490
2018-02-24T13:07:44.239Z,540
2018-02-24T13:08:44.206Z,535
2018-02-24T13:09:44.180Z,560
2018-02-24T13:10:44.152Z,575
2018-02-24T13:11:44.127Z,550
2018-02-24T13:12:43.856Z,565
2018-02-24T13:13:43.821Z,570
2018-02-24T13:14:43.781Z,510
2018-02-24T13:15:44.002Z,470
2018-02-24T13:16:43.719Z,455
2018-02-24T13:17:43.947Z,455
2018-02-24T13:18:43.912Z,435
2018-02-24T13:19:43.880Z,450
2018-02-24T13:20:43.602Z,465
2018-02-24T13:21:43.829Z,445
2018-02-24T13:22:43.548Z,395
2018-02-24T13:23:43.765Z,385
2018-02-24T13:24:43.734Z,365
2018-02-24T13:25:43.705Z,360
2018-02-24T13:26:43.677Z,355
2018-02-24T13:27:43.644Z,350
2018-02-24T13:28:43.612Z,345
2018-02-24T13:29:43.584Z,350
2018-02-24T13:30:43.308Z,370
2018-02-24T13:31:43.521Z,370
2018-02-24T13:32:43.501Z,370
2018-02-24T13:33:43.467Z,365
2018-02-24T13:34:43.437Z,365
2018-02-24T13:35:43.392Z,380
2018-02-24T13:36:43.375Z,385
2018-02-24T13:37:43.347Z,385
2018-02-24T13:38:43.312Z,385
2018-02-24T13:39:43.275Z,385
2018-02-24T13:40:43.008Z,380
2018-02-24T13:41:42.975Z,385
2018-02-24T13:42:43.192Z,385
2018-02-24T13:43:42.664Z,385
2018-02-24T13:44:43.139Z,395
2018-02-24T13:45:43.094Z,400
2018-02-24T13:46:43.070Z,400
2018-02-24T13:47:43.037Z,400
2018-02-24T13:48:43.001Z,395
2018-02-24T13:49:42.737Z,395
2018-02-24T13:50:42.947Z,400
2018-02-24T13:51:42.673Z,405
2018-02-24T13:52:42.894Z,420
2018-02-24T13:53:42.902Z,450
2018-02-24T13:54:42.577Z,515
2018-02-24T13:55:42.798Z,575
2018-02-24T13:56:42.772Z,575
2018-02-24T13:57:42.487Z,615
2018-02-24T13:58:42.704Z,630
2018-02-24T13:59:42.436Z,610
2018-02-24T14:00:42.150Z,605
2018-02-24T14:01:42.616Z,625
2018-02-24T14:02:42.592Z,595
2018-02-24T14:03:42.065Z,475
2018-02-24T14:04:42.535Z,425
2018-02-24T14:05:42.247Z,455
2018-02-24T14:06:42.223Z,480
2018-02-24T14:07:42.434Z,470
2018-02-24T14:08:42.414Z,505
2018-02-24T14:09:42.139Z,470
2018-02-24T14:10:42.349Z,440
2018-02-24T14:11:42.324Z,420
2018-02-24T14:12:42.303Z,355